createdAt,value
2023-03-10T00:00:00.485Z,7.78
2023-03-10T00:02:30.514Z,6.72
2023-03-10T00:04:57.604Z,6.90
2023-03-10T00:07:24.752Z,6.43
2023-03-10T00:09:51.783Z,9.48
2023-03-10T00:12:18.867Z,10.73
2023-03-10T00:14:45.882Z,7.53
2023-03-10T00:17:12.939Z,7.13
2023-03-10T00:19:39.948Z,6.20
2023-03-10T00:22:07.078Z,8.45
2023-03-10T00:24:34.252Z,9.05
2023-03-10T00:27:01.292Z,8.43
2023-03-10T00:29:28.407Z,4.45
2023-03-10T00:31:55.499Z,7.30
2023-03-10T00:34:22.542Z,5.47
2023-03-10T00:36:49.617Z,5.22
2023-03-10T00:39:17.483Z,4.40
2023-03-10T00:41:44.495Z,7.45
2023-03-10T00:44:11.749Z,13.43
2023-03-10T00:46:39.005Z,7.97
2023-03-10T00:49:06.798Z,4.70
2023-03-10T00:51:34.270Z,6.15
2023-03-10T00:54:02.384Z,6.15
2023-03-10T00:56:29.621Z,4.97
2023-03-10T00:58:57.542Z,5.25
2023-03-10T01:01:29.026Z,3.88
2023-03-10T01:03:57.927Z,9.30
2023-03-10T01:06:25.455Z,6.68
2023-03-10T01:08:52.563Z,6.35
2023-03-10T01:11:21.371Z,6.47
2023-03-10T01:13:48.802Z,8.40
2023-03-10T01:16:16.029Z,5.43
2023-03-10T01:18:43.294Z,9.02
2023-03-10T01:21:14.577Z,5.57
2023-03-10T01:23:41.594Z,3.75
2023-03-10T01:26:08.682Z,6.95
2023-03-10T01:28:35.767Z,8.43
2023-03-10T01:31:04.948Z,5.22
2023-03-10T01:33:31.979Z,8.50
2023-03-10T01:35:59.003Z,7.22
2023-03-10T01:38:26.089Z,9.07
2023-03-10T01:40:53.169Z,5.05
2023-03-10T01:43:20.180Z,5.60
2023-03-10T01:45:47.171Z,10.02
2023-03-10T01:48:15.139Z,4.18
2023-03-10T01:50:43.710Z,5.57
2023-03-10T01:53:11.419Z,6.00
2023-03-10T01:55:40.805Z,6.60
2023-03-10T01:58:08.485Z,3.42
2023-03-10T02:00:35.808Z,3.03
2023-03-10T02:03:12.835Z,4.85
2023-03-10T02:05:42.316Z,4.97
2023-03-10T02:08:09.974Z,7.40
2023-03-10T02:10:37.022Z,7.35
2023-03-10T02:13:04.041Z,8.10
2023-03-10T02:15:32.908Z,4.85
2023-03-10T02:18:01.583Z,6.38
2023-03-10T02:20:34.613Z,4.35
2023-03-10T02:23:01.911Z,9.20
2023-03-10T02:25:50.455Z,5.25
2023-03-10T02:28:18.018Z,5.40
2023-03-10T02:30:46.536Z,6.25
2023-03-10T02:33:21.894Z,3.92
2023-03-10T02:35:48.959Z,7.28
2023-03-10T02:38:16.183Z,5.88
2023-03-10T02:40:50.589Z,5.43
2023-03-10T02:43:19.679Z,6.28
2023-03-10T02:45:47.716Z,3.60
2023-03-10T02:48:16.624Z,4.82
2023-03-10T02:50:44.739Z,5.10
2023-03-10T02:53:14.182Z,2.80
2023-03-10T02:55:41.536Z,3.78
2023-03-10T02:58:09.083Z,6.20
2023-03-10T03:00:39.870Z,5.65
2023-03-10T03:03:07.453Z,4.72
2023-03-10T03:05:34.600Z,10.45
2023-03-10T03:08:01.692Z,5.65
2023-03-10T03:10:28.829Z,6.18
2023-03-10T03:12:56.583Z,10.88
2023-03-10T03:15:23.839Z,6.07
2023-03-10T03:17:51.307Z,4.10
2023-03-10T03:20:18.411Z,5.90
2023-03-10T03:22:46.071Z,6.53
2023-03-10T03:25:14.063Z,10.80
2023-03-10T03:27:41.104Z,8.00
2023-03-10T03:30:10.007Z,8.93
2023-03-10T03:32:37.626Z,6.00
2023-03-10T03:35:05.249Z,6.45
2023-03-10T03:37:32.231Z,7.00
2023-03-10T03:39:59.256Z,3.42
2023-03-10T03:42:26.289Z,8.40
2023-03-10T03:44:53.355Z,3.63
2023-03-10T03:47:20.339Z,5.22
2023-03-10T03:49:47.319Z,5.63
2023-03-10T03:52:14.363Z,6.95
2023-03-10T03:54:41.360Z,7.30
2023-03-10T03:57:08.390Z,4.60
2023-03-10T03:59:35.959Z,6.25
2023-03-10T04:02:03.144Z,5.60
2023-03-10T04:04:30.191Z,5.03
2023-03-10T04:06:57.222Z,5.85
2023-03-10T04:09:24.264Z,5.65
2023-03-10T04:11:51.300Z,7.22
2023-03-10T04:14:18.295Z,6.68
2023-03-10T04:16:45.381Z,4.03
2023-03-10T04:19:12.521Z,3.28
2023-03-10T04:21:39.589Z,2.70
2023-03-10T04:24:06.768Z,6.50
2023-03-10T04:26:33.786Z,5.80
2023-03-10T04:29:00.862Z,6.45
2023-03-10T04:31:27.971Z,4.00
2023-03-10T04:33:55.113Z,6.03
2023-03-10T04:36:22.232Z,2.63
2023-03-10T04:38:49.272Z,2.67
2023-03-10T04:41:17.540Z,5.20
2023-03-10T04:43:47.524Z,6.20
2023-03-10T04:46:15.121Z,11.23
2023-03-10T04:48:42.711Z,9.18
2023-03-10T04:51:10.853Z,4.30
2023-03-10T04:53:37.942Z,6.20
2023-03-10T04:56:06.332Z,5.38
2023-03-10T04:58:33.607Z,6.43
2023-03-10T05:01:03.634Z,5.45
2023-03-10T05:03:30.901Z,3.58
2023-03-10T05:05:57.949Z,3.90
2023-03-10T05:08:24.998Z,6.75
2023-03-10T05:10:51.985Z,3.80
2023-03-10T05:13:19.037Z,6.97
2023-03-10T05:15:46.131Z,4.78
2023-03-10T05:18:13.284Z,6.63
2023-03-10T05:20:40.601Z,4.38
2023-03-10T05:23:07.703Z,5.55
2023-03-10T05:25:36.201Z,4.68
2023-03-10T05:28:03.223Z,8.85
2023-03-10T05:30:30.237Z,5.22
2023-03-10T05:32:57.279Z,4.05
2023-03-10T05:35:24.338Z,7.57
2023-03-10T05:37:51.495Z,3.78
2023-03-10T05:40:22.160Z,9.13
2023-03-10T05:42:49.692Z,4.70
2023-03-10T05:45:16.715Z,6.72
2023-03-10T05:47:44.024Z,4.00
2023-03-10T05:50:11.697Z,7.10
2023-03-10T05:52:39.892Z,6.88
2023-03-10T05:55:07.858Z,3.63
2023-03-10T05:57:34.922Z,4.57
2023-03-10T06:00:01.937Z,4.72
2023-03-10T06:02:28.960Z,5.40
2023-03-10T06:04:55.977Z,5.50
2023-03-10T06:07:23.070Z,6.20
2023-03-10T06:09:50.084Z,4.28
2023-03-10T06:12:17.081Z,5.85
2023-03-10T06:14:44.090Z,6.05
2023-03-10T06:17:11.163Z,5.22
2023-03-10T06:19:38.203Z,6.38
2023-03-10T06:22:05.231Z,5.93
2023-03-10T06:24:32.350Z,6.68
2023-03-10T06:26:59.349Z,6.13
2023-03-10T06:29:26.396Z,5.10
2023-03-10T06:31:53.478Z,4.70
2023-03-10T06:34:20.510Z,3.50
2023-03-10T06:36:47.579Z,7.75
2023-03-10T06:39:14.614Z,5.20
2023-03-10T06:41:41.707Z,5.70
2023-03-10T06:44:08.820Z,5.15
2023-03-10T06:46:35.918Z,8.50
2023-03-10T06:49:03.039Z,5.57
2023-03-10T06:51:30.081Z,8.27
2023-03-10T06:53:57.542Z,8.35
2023-03-10T06:56:24.662Z,7.25
2023-03-10T06:58:51.680Z,3.28
2023-03-10T07:01:21.054Z,9.85
2023-03-10T07:03:48.443Z,8.45
2023-03-10T07:06:15.484Z,12.50
2023-03-10T07:08:42.580Z,8.98
2023-03-10T07:11:09.979Z,6.40
2023-03-10T07:13:37.021Z,5.55
2023-03-10T07:16:04.081Z,7.20
2023-03-10T07:18:31.275Z,7.03
2023-03-10T07:20:58.334Z,9.25
2023-03-10T07:23:25.719Z,6.15
2023-03-10T07:25:56.624Z,6.78
2023-03-10T07:28:24.560Z,18.92
2023-03-10T07:30:52.146Z,6.22
2023-03-10T07:33:19.240Z,8.65
2023-03-10T07:35:46.352Z,8.20
2023-03-10T07:38:13.427Z,22.17
2023-03-10T07:40:40.919Z,7.15
2023-03-10T07:43:08.001Z,11.85
2023-03-10T07:45:35.554Z,10.27
2023-03-10T07:48:02.664Z,7.47
2023-03-10T07:50:29.745Z,11.82
2023-03-10T07:52:56.778Z,3.90
2023-03-10T07:55:23.811Z,5.97
2023-03-10T07:57:50.924Z,5.22
2023-03-10T08:00:18.374Z,8.43
2023-03-10T08:02:45.486Z,7.90
2023-03-10T08:05:14.625Z,5.90
2023-03-10T08:07:42.036Z,8.75
2023-03-10T08:10:09.300Z,4.03
2023-03-10T08:12:36.801Z,7.90
2023-03-10T08:15:04.767Z,27.52
2023-03-10T08:17:33.319Z,9.30
2023-03-10T08:20:01.017Z,6.53
2023-03-10T08:22:28.123Z,10.02
2023-03-10T08:24:56.078Z,14.82
2023-03-10T08:27:23.172Z,10.15
2023-03-10T08:29:50.252Z,5.95
2023-03-10T08:32:17.432Z,11.48
2023-03-10T08:34:44.712Z,8.05
2023-03-10T08:37:11.769Z,5.20
2023-03-10T08:39:38.984Z,8.93
2023-03-10T08:42:06.427Z,9.55
2023-03-10T08:44:33.457Z,13.07
2023-03-10T08:47:00.794Z,7.25
2023-03-10T08:49:27.882Z,12.32
2023-03-10T08:51:54.935Z,6.57
2023-03-10T08:54:22.576Z,9.73
2023-03-10T08:56:50.127Z,3.15
2023-03-10T08:59:18.202Z,5.63
2023-03-10T09:01:45.587Z,5.20
2023-03-10T09:04:12.677Z,8.85
2023-03-10T09:06:39.836Z,6.70
2023-03-10T09:09:07.658Z,5.45
2023-03-10T09:11:38.428Z,7.82
2023-03-10T09:14:06.048Z,5.18
2023-03-10T09:16:33.870Z,8.13
2023-03-10T09:19:01.337Z,5.57
2023-03-10T09:21:30.714Z,6.03
2023-03-10T09:24:00.240Z,8.07
2023-03-10T09:26:27.246Z,8.88
2023-03-10T09:28:56.830Z,8.55
2023-03-10T09:31:26.300Z,7.18
2023-03-10T09:33:53.423Z,7.05
2023-03-10T09:36:20.754Z,7.30
2023-03-10T09:38:47.904Z,9.93
2023-03-10T09:41:37.008Z,7.35
2023-03-10T09:44:26.496Z,8.57
2023-03-10T09:46:56.432Z,5.70
2023-03-10T09:49:26.976Z,8.50
2023-03-10T09:51:54.275Z,10.13
2023-03-10T09:54:27.296Z,6.28
2023-03-10T09:56:55.747Z,6.60
2023-03-10T09:59:29.707Z,5.07
2023-03-10T10:04:28.317Z,4.90
2023-03-10T10:06:57.291Z,5.78
2023-03-10T10:09:28.061Z,5.95
2023-03-10T10:11:56.067Z,6.25
2023-03-10T10:14:30.785Z,2.92
2023-03-10T10:17:04.222Z,5.55
2023-03-10T10:19:31.605Z,2.45
2023-03-10T10:22:01.376Z,2.47
2023-03-10T10:24:28.430Z,4.25
2023-03-10T10:26:56.133Z,1.65
2023-03-10T10:29:24.157Z,1.75
2023-03-10T10:32:08.415Z,1.60
2023-03-10T10:37:02.583Z,3.13
2023-03-10T10:39:31.300Z,1.15
2023-03-10T10:42:14.395Z,2.00
2023-03-10T10:44:42.871Z,1.17
2023-03-10T10:47:24.508Z,0.60
2023-03-10T10:49:51.747Z,2.08
2023-03-10T10:52:21.004Z,3.05
2023-03-10T10:54:57.417Z,3.20
2023-03-10T10:57:28.589Z,1.50
2023-03-10T10:59:55.798Z,3.63
2023-03-10T11:02:33.639Z,2.30
2023-03-10T11:05:13.651Z,0.75
2023-03-10T11:07:40.741Z,3.05
2023-03-10T11:10:13.452Z,1.38
2023-03-10T11:12:46.482Z,2.47
2023-03-10T11:15:18.341Z,2.77
2023-03-10T11:17:50.711Z,1.40
2023-03-10T11:20:36.971Z,3.55
2023-03-10T11:23:07.396Z,2.28
2023-03-10T11:25:47.855Z,2.80
2023-03-10T11:28:37.932Z,2.92
2023-03-10T11:31:10.947Z,5.50
2023-03-10T11:33:44.109Z,1.60
2023-03-10T11:36:17.932Z,3.65
2023-03-10T11:41:11.918Z,4.82
2023-03-10T11:43:56.586Z,4.78
2023-03-10T11:46:26.811Z,5.80
2023-03-10T11:48:57.515Z,3.53
2023-03-10T11:51:30.509Z,1.95
2023-03-10T11:53:59.558Z,3.83
2023-03-10T11:56:27.812Z,4.07
2023-03-10T11:59:10.547Z,1.83
2023-03-10T12:01:52.960Z,6.82
2023-03-10T12:04:21.298Z,0.82
2023-03-10T12:06:54.563Z,0.70
2023-03-10T12:09:30.445Z,4.38
2023-03-10T12:11:57.813Z,5.18
2023-03-10T12:14:25.271Z,2.88
2023-03-10T12:16:53.418Z,3.85
2023-03-10T12:19:20.486Z,3.40
2023-03-10T12:22:07.462Z,3.63
2023-03-10T12:24:47.470Z,0.70
2023-03-10T12:27:14.501Z,4.45
2023-03-10T12:29:42.616Z,1.50
2023-03-10T12:32:28.378Z,2.55
2023-03-10T12:35:14.332Z,2.28
2023-03-10T12:37:41.352Z,1.30
2023-03-10T12:40:28.421Z,5.97
2023-03-10T12:42:55.446Z,4.50
2023-03-10T12:45:28.528Z,3.53
2023-03-10T12:48:04.459Z,2.28
2023-03-10T12:50:31.536Z,2.38
2023-03-10T12:53:07.712Z,3.22
2023-03-10T12:55:34.845Z,1.00
2023-03-10T12:58:10.536Z,4.72
2023-03-10T13:00:40.649Z,2.67
2023-03-10T13:03:10.451Z,3.53
2023-03-10T13:05:56.194Z,1.10
2023-03-10T13:08:25.735Z,1.63
2023-03-10T13:10:55.189Z,0.95
2023-03-10T13:13:22.614Z,1.35
2023-03-10T13:16:02.823Z,5.40
2023-03-10T13:18:30.410Z,0.75
2023-03-10T13:21:01.486Z,2.15
2023-03-10T13:23:34.195Z,2.70
2023-03-10T13:26:08.677Z,2.42
2023-03-10T13:28:36.478Z,1.17
2023-03-10T13:31:10.284Z,0.50
2023-03-10T13:33:50.062Z,2.78
2023-03-10T13:36:22.485Z,7.75
2023-03-10T13:38:50.059Z,14.77
2023-03-10T13:41:17.141Z,7.07
2023-03-10T13:43:45.509Z,5.50
2023-03-10T13:46:29.453Z,2.58
2023-03-10T13:48:58.137Z,4.22
2023-03-10T13:51:31.741Z,4.25
2023-03-10T13:54:11.945Z,2.47
2023-03-10T13:56:40.094Z,1.48
2023-03-10T13:59:07.406Z,0.85
2023-03-10T14:01:36.628Z,1.25
2023-03-10T14:04:08.516Z,0.90
2023-03-10T14:06:36.897Z,0.60
2023-03-10T14:09:20.801Z,5.35
2023-03-10T14:11:48.289Z,0.60
2023-03-10T14:14:29.143Z,1.95
2023-03-10T14:16:57.282Z,0.60
2023-03-10T14:19:42.601Z,1.20
2023-03-10T14:22:26.138Z,0.82
2023-03-10T14:24:53.360Z,0.60
2023-03-10T14:27:20.777Z,0.85
2023-03-10T14:30:13.969Z,1.75
2023-03-10T14:32:41.037Z,2.45
2023-03-10T14:35:14.815Z,3.20
2023-03-10T14:37:41.949Z,0.70
2023-03-10T14:40:10.711Z,1.10
2023-03-10T14:42:38.027Z,2.58
2023-03-10T14:45:09.749Z,2.70
2023-03-10T14:47:37.091Z,1.13
2023-03-10T14:50:04.325Z,1.35
2023-03-10T14:52:31.377Z,0.60
2023-03-10T14:54:58.390Z,1.55
2023-03-10T14:57:27.662Z,0.57
2023-03-10T14:59:55.624Z,7.57
2023-03-10T15:02:23.814Z,0.60
2023-03-10T15:04:50.927Z,0.65
2023-03-10T15:07:18.069Z,1.30
2023-03-10T15:09:45.377Z,0.70
2023-03-10T15:12:14.033Z,0.73
2023-03-10T15:14:42.022Z,2.83
2023-03-10T15:17:10.085Z,1.40
2023-03-10T15:19:37.266Z,0.82
2023-03-10T15:22:04.413Z,1.40
2023-03-10T15:24:31.402Z,0.77
2023-03-10T15:26:58.627Z,0.70
2023-03-10T15:29:25.802Z,0.70
2023-03-10T15:31:52.897Z,1.52
2023-03-10T15:34:20.742Z,1.77
2023-03-10T15:36:47.914Z,0.70
2023-03-10T15:39:25.529Z,1.10
2023-03-10T15:41:58.491Z,1.48
2023-03-10T15:44:25.514Z,2.13
2023-03-10T15:46:54.934Z,1.77
2023-03-10T15:49:22.209Z,1.80
2023-03-10T15:51:49.238Z,0.93
2023-03-10T15:54:16.280Z,0.80
2023-03-10T15:56:43.288Z,1.38
2023-03-10T15:59:10.626Z,0.75
2023-03-10T16:01:37.804Z,0.80
2023-03-10T16:04:05.981Z,1.30
2023-03-10T16:06:33.664Z,1.92
2023-03-10T16:09:00.824Z,2.25
2023-03-10T16:11:28.042Z,1.10
2023-03-10T16:13:55.093Z,1.67
2023-03-10T16:16:26.226Z,1.58
2023-03-10T16:18:53.791Z,1.48
2023-03-10T16:21:21.229Z,1.02
2023-03-10T16:23:48.361Z,1.45
2023-03-10T16:26:17.488Z,1.88
2023-03-10T16:28:45.660Z,0.95
2023-03-10T16:31:13.772Z,2.22
2023-03-10T16:33:41.057Z,1.55
2023-03-10T16:36:09.265Z,1.92
2023-03-10T16:38:36.412Z,0.82
2023-03-10T16:41:03.700Z,0.77
2023-03-10T16:43:31.604Z,0.70
2023-03-10T16:46:12.621Z,3.08
2023-03-10T16:48:43.556Z,2.28
2023-03-10T16:51:19.074Z,2.33
2023-03-10T16:53:46.180Z,2.58
2023-03-10T16:56:13.193Z,1.60
2023-03-10T16:58:40.248Z,1.00
2023-03-10T17:01:07.417Z,2.00
2023-03-10T17:03:39.444Z,1.42
2023-03-10T17:06:07.829Z,2.63
2023-03-10T17:08:34.862Z,1.33
2023-03-10T17:11:01.959Z,1.42
2023-03-10T17:13:29.233Z,2.65
2023-03-10T17:15:56.286Z,1.80
2023-03-10T17:18:23.546Z,1.98
2023-03-10T17:20:50.642Z,4.32
2023-03-10T17:23:17.797Z,4.35
2023-03-10T17:25:45.676Z,2.08
2023-03-10T17:28:12.785Z,7.43
2023-03-10T17:30:40.576Z,2.63
2023-03-10T17:33:07.635Z,6.18
2023-03-10T17:35:38.480Z,3.90
2023-03-10T17:38:05.589Z,5.45
2023-03-10T17:40:33.777Z,6.18
2023-03-10T17:43:13.139Z,6.60
2023-03-10T17:45:56.616Z,8.48
2023-03-10T17:48:23.666Z,6.47
2023-03-10T17:50:50.688Z,5.70
2023-03-10T17:53:17.828Z,4.72
2023-03-10T17:55:44.885Z,7.80
2023-03-10T17:58:12.006Z,3.92
2023-03-10T18:00:39.033Z,6.32
2023-03-10T18:03:06.155Z,9.15
2023-03-10T18:05:33.425Z,8.73
2023-03-10T18:08:00.546Z,10.93
2023-03-10T18:10:27.630Z,6.15
2023-03-10T18:12:54.647Z,5.35
2023-03-10T18:15:21.709Z,5.13
2023-03-10T18:17:48.746Z,6.63
2023-03-10T18:20:15.801Z,10.20
2023-03-10T18:22:42.862Z,11.35
2023-03-10T18:25:10.081Z,5.65
2023-03-10T18:27:37.154Z,9.32
2023-03-10T18:30:05.222Z,10.35
2023-03-10T18:32:33.986Z,7.45
2023-03-10T18:35:02.756Z,8.27
2023-03-10T18:37:32.439Z,10.80
2023-03-10T18:39:59.935Z,12.38
2023-03-10T18:42:27.697Z,9.73
2023-03-10T18:44:55.091Z,11.93
2023-03-10T18:47:22.416Z,8.82
2023-03-10T18:49:49.478Z,11.32
2023-03-10T18:52:16.664Z,9.52
2023-03-10T18:54:44.177Z,13.93
2023-03-10T18:57:11.503Z,6.43
2023-03-10T18:59:38.615Z,4.65
2023-03-10T19:02:12.978Z,10.10
2023-03-10T19:04:40.593Z,5.55
2023-03-10T19:07:08.483Z,8.27
2023-03-10T19:09:35.539Z,7.63
2023-03-10T19:12:02.669Z,7.55
2023-03-10T19:14:29.656Z,14.43
2023-03-10T19:16:56.701Z,18.17
2023-03-10T19:19:23.719Z,6.10
2023-03-10T19:21:50.811Z,8.77
2023-03-10T19:24:17.824Z,9.48
2023-03-10T19:26:44.955Z,10.52
2023-03-10T19:29:12.009Z,8.60
2023-03-10T19:31:39.918Z,12.07
2023-03-10T19:34:07.029Z,9.98
2023-03-10T19:36:34.050Z,12.57
2023-03-10T19:39:01.061Z,9.35
2023-03-10T19:41:28.238Z,7.22
2023-03-10T19:43:55.253Z,9.32
2023-03-10T19:46:22.371Z,9.38
2023-03-10T19:48:49.816Z,9.02
2023-03-10T19:51:20.709Z,12.63
2023-03-10T19:53:47.965Z,8.23
2023-03-10T19:56:17.142Z,9.15
2023-03-10T19:58:44.464Z,11.70
2023-03-10T20:01:15.474Z,11.07
2023-03-10T20:03:42.957Z,11.63
2023-03-10T20:06:10.414Z,9.68
2023-03-10T20:08:38.107Z,9.82
2023-03-10T20:11:05.568Z,10.48
2023-03-10T20:13:35.601Z,7.97
2023-03-10T20:16:02.980Z,9.25
2023-03-10T20:18:30.062Z,11.48
2023-03-10T20:20:57.170Z,12.75
2023-03-10T20:23:24.641Z,8.10
2023-03-10T20:25:51.664Z,14.25
2023-03-10T20:28:18.872Z,13.02
2023-03-10T20:30:47.235Z,10.48
2023-03-10T20:33:14.240Z,9.20
2023-03-10T20:35:41.418Z,7.72
2023-03-10T20:38:08.463Z,13.93
2023-03-10T20:40:38.278Z,9.77
2023-03-10T20:43:07.020Z,10.43
2023-03-10T20:45:34.102Z,8.13
2023-03-10T20:48:01.608Z,8.93
2023-03-10T20:50:28.626Z,7.88
2023-03-10T20:52:55.641Z,6.45
2023-03-10T20:55:24.043Z,11.00
2023-03-10T20:57:51.845Z,10.35
2023-03-10T21:00:21.131Z,12.40
2023-03-10T21:02:49.156Z,10.13
2023-03-10T21:05:16.289Z,7.35
2023-03-10T21:07:43.474Z,10.48
2023-03-10T21:10:12.290Z,9.02
2023-03-10T21:12:39.749Z,8.43
2023-03-10T21:15:07.599Z,6.50
2023-03-10T21:17:34.681Z,8.50
2023-03-10T21:20:01.788Z,9.75
2023-03-10T21:22:34.916Z,4.22
2023-03-10T21:25:02.768Z,10.10
2023-03-10T21:27:30.807Z,4.95
2023-03-10T21:29:59.520Z,7.43
2023-03-10T21:32:27.133Z,5.47
2023-03-10T21:34:54.969Z,6.20
2023-03-10T21:37:22.036Z,8.68
2023-03-10T21:39:49.121Z,6.28
2023-03-10T21:42:16.473Z,4.28
2023-03-10T21:44:43.570Z,7.78
2023-03-10T21:47:10.731Z,4.75
2023-03-10T21:49:37.754Z,3.95
2023-03-10T21:52:04.844Z,4.85
2023-03-10T21:54:31.884Z,6.97
2023-03-10T21:56:59.584Z,2.40
2023-03-10T21:59:26.719Z,4.25
2023-03-10T22:01:53.807Z,3.13
2023-03-10T22:04:20.848Z,4.03
2023-03-10T22:06:47.882Z,3.75
2023-03-10T22:09:15.567Z,6.40
2023-03-10T22:11:42.648Z,5.45
2023-03-10T22:14:10.607Z,4.00
2023-03-10T22:16:37.640Z,5.22
2023-03-10T22:19:04.701Z,5.72
2023-03-10T22:21:31.728Z,5.13
2023-03-10T22:23:59.856Z,3.38
2023-03-10T22:26:26.882Z,4.90
2023-03-10T22:28:54.395Z,4.53
2023-03-10T22:31:22.194Z,2.03
2023-03-10T22:33:49.248Z,1.75
2023-03-10T22:36:16.363Z,2.75
2023-03-10T22:38:43.393Z,5.38
2023-03-10T22:41:11.707Z,2.65
2023-03-10T22:43:38.890Z,4.15
2023-03-10T22:46:12.973Z,3.95
2023-03-10T22:48:40.494Z,3.45
2023-03-10T22:51:08.752Z,2.08
2023-03-10T22:53:38.006Z,3.10
2023-03-10T22:56:05.494Z,3.75
2023-03-10T22:58:32.640Z,3.03
2023-03-10T23:00:59.672Z,3.53
2023-03-10T23:03:26.923Z,2.20
2023-03-10T23:05:54.018Z,3.67
2023-03-10T23:08:21.111Z,4.03
2023-03-10T23:10:48.174Z,2.30
2023-03-10T23:13:16.312Z,2.88
2023-03-10T23:15:43.823Z,4.20
2023-03-10T23:18:10.925Z,3.05
2023-03-10T23:20:45.583Z,1.95
2023-03-10T23:23:14.607Z,1.52
2023-03-10T23:25:42.857Z,1.35
2023-03-10T23:28:10.672Z,2.58
2023-03-10T23:30:39.264Z,4.53
2023-03-10T23:33:09.983Z,2.20
2023-03-10T23:35:37.103Z,2.17
2023-03-10T23:38:06.036Z,5.10
2023-03-10T23:40:33.524Z,4.40
2023-03-10T23:43:01.726Z,1.85
2023-03-10T23:45:29.624Z,3.08
2023-03-10T23:47:57.437Z,2.50
2023-03-10T23:50:26.378Z,4.10
2023-03-10T23:52:53.804Z,1.90
2023-03-10T23:55:25.765Z,2.33
2023-03-10T23:57:53.447Z,2.20
